createdAt,value
2018-09-27T00:01:31.216Z,10.92
2018-09-27T00:04:34.739Z,10.93
2018-09-27T00:07:38.137Z,10.89
2018-09-27T00:10:41.696Z,10.87
2018-09-27T00:13:45.365Z,10.80
2018-09-27T00:16:48.901Z,10.81
2018-09-27T00:19:52.498Z,10.80
2018-09-27T00:22:56.324Z,10.80
2018-09-27T00:25:59.839Z,10.77
2018-09-27T00:29:03.398Z,10.79
2018-09-27T00:32:07.253Z,10.76
2018-09-27T00:35:10.833Z,10.72
2018-09-27T00:38:14.343Z,10.69
2018-09-27T00:41:17.858Z,10.72
2018-09-27T00:44:21.373Z,10.58
2018-09-27T00:47:24.873Z,10.38
2018-09-27T00:50:28.453Z,10.18
2018-09-27T00:53:31.896Z,10.01
2018-09-27T00:56:35.493Z,9.87
2018-09-27T00:59:38.996Z,9.90
2018-09-27T01:02:42.462Z,10.02
2018-09-27T01:05:45.883Z,10.09
2018-09-27T01:08:49.402Z,10.21
2018-09-27T01:11:52.905Z,10.20
2018-09-27T01:14:56.410Z,10.15
2018-09-27T01:18:00.185Z,10.15
2018-09-27T01:21:03.612Z,10.13
2018-09-27T01:24:07.147Z,10.03
2018-09-27T01:27:10.592Z,9.97
2018-09-27T01:30:14.018Z,9.97
2018-09-27T01:33:17.512Z,9.93
2018-09-27T01:36:21.308Z,9.91
2018-09-27T01:39:25.737Z,9.85
2018-09-27T01:42:30.344Z,9.90
2018-09-27T01:45:33.774Z,9.94
2018-09-27T01:48:37.246Z,9.83
2018-09-27T01:51:40.751Z,9.83
2018-09-27T01:54:44.167Z,9.84
2018-09-27T01:57:47.564Z,9.77
2018-09-27T02:00:51.063Z,9.73
2018-09-27T02:03:54.465Z,9.70
2018-09-27T02:06:57.917Z,9.73
2018-09-27T02:10:01.453Z,9.75
2018-09-27T02:13:04.873Z,9.77
2018-09-27T02:16:08.287Z,9.75
2018-09-27T02:19:11.767Z,9.78
2018-09-27T02:22:15.166Z,9.82
2018-09-27T02:25:18.569Z,9.84
2018-09-27T02:28:21.990Z,9.86
2018-09-27T02:31:25.385Z,9.87
2018-09-27T02:34:28.880Z,9.83
2018-09-27T02:37:32.273Z,9.82
2018-09-27T02:40:35.739Z,9.79
2018-09-27T02:43:40.203Z,9.72
2018-09-27T02:46:43.595Z,9.74
2018-09-27T02:49:47.017Z,9.81
2018-09-27T02:52:50.413Z,9.73
2018-09-27T02:55:53.817Z,9.67
2018-09-27T02:58:57.205Z,9.64
2018-09-27T03:02:00.740Z,9.61
2018-09-27T03:05:05.022Z,9.60
2018-09-27T03:08:08.405Z,9.54
2018-09-27T03:11:11.871Z,9.49
2018-09-27T03:14:15.312Z,9.45
2018-09-27T03:17:18.720Z,9.40
2018-09-27T03:20:22.093Z,9.37
2018-09-27T03:23:25.538Z,9.20
2018-09-27T03:26:28.922Z,9.25
2018-09-27T03:29:32.412Z,9.23
2018-09-27T03:32:35.895Z,9.22
2018-09-27T03:35:39.333Z,9.22
2018-09-27T03:38:42.730Z,9.20
2018-09-27T03:41:46.118Z,9.21
2018-09-27T03:44:49.509Z,9.24
2018-09-27T03:47:52.984Z,9.26
2018-09-27T03:50:56.452Z,9.21
2018-09-27T03:53:59.911Z,9.22
2018-09-27T03:57:03.368Z,9.24
2018-09-27T04:00:07.810Z,9.26
2018-09-27T04:03:11.221Z,9.27
2018-09-27T04:06:14.949Z,9.21
2018-09-27T04:09:18.372Z,9.22
2018-09-27T04:12:22.857Z,9.23
2018-09-27T04:15:26.305Z,9.21
2018-09-27T04:18:30.786Z,9.17
2018-09-27T04:21:34.341Z,9.16
2018-09-27T04:24:37.819Z,9.16
2018-09-27T04:27:41.459Z,9.05
2018-09-27T04:30:44.950Z,8.50
2018-09-27T04:33:48.453Z,8.24
2018-09-27T04:36:51.987Z,8.20
2018-09-27T04:39:55.589Z,8.26
2018-09-27T04:42:59.099Z,8.18
2018-09-27T04:46:02.703Z,8.13
2018-09-27T04:49:06.755Z,8.17
2018-09-27T04:52:10.252Z,8.14
2018-09-27T04:55:18.767Z,8.20
2018-09-27T04:58:22.272Z,8.22
2018-09-27T05:01:25.881Z,8.16
2018-09-27T05:04:29.390Z,8.16
2018-09-27T05:07:32.927Z,8.03
2018-09-27T05:10:36.530Z,7.86
2018-09-27T05:13:40.011Z,8.02
2018-09-27T05:16:43.529Z,8.03
2018-09-27T05:19:47.071Z,8.05
2018-09-27T05:22:50.619Z,8.05
2018-09-27T05:25:54.132Z,8.06
2018-09-27T05:28:57.614Z,8.08
2018-09-27T05:32:01.969Z,8.06
2018-09-27T05:35:05.504Z,8.08
2018-09-27T05:38:09.050Z,8.04
2018-09-27T05:41:12.545Z,8.11
2018-09-27T05:44:16.061Z,8.24
2018-09-27T05:47:19.656Z,8.27
2018-09-27T05:50:23.162Z,8.35
2018-09-27T05:53:27.688Z,8.41
2018-09-27T05:56:31.146Z,8.55
2018-09-27T05:59:34.887Z,8.60
2018-09-27T06:02:38.499Z,8.65
2018-09-27T06:05:42.096Z,8.67
2018-09-27T06:08:45.602Z,8.71
2018-09-27T06:11:49.111Z,8.73
2018-09-27T06:14:52.613Z,8.79
2018-09-27T06:17:56.115Z,8.88
2018-09-27T06:20:59.687Z,9.01
2018-09-27T06:24:03.160Z,9.17
2018-09-27T06:27:06.717Z,9.23
2018-09-27T06:30:10.300Z,9.34
2018-09-27T06:33:13.906Z,9.47
2018-09-27T06:36:17.408Z,9.64
2018-09-27T06:39:21.218Z,9.76
2018-09-27T06:42:24.645Z,9.89
2018-09-27T06:45:28.159Z,9.97
2018-09-27T06:48:31.717Z,10.15
2018-09-27T06:51:35.407Z,10.31
2018-09-27T06:54:38.856Z,10.44
2018-09-27T06:57:42.350Z,10.59
2018-09-27T07:00:45.866Z,10.72
2018-09-27T07:03:49.423Z,10.85
2018-09-27T07:06:52.861Z,10.97
2018-09-27T07:09:56.386Z,11.09
2018-09-27T07:12:59.957Z,11.29
2018-09-27T07:16:03.551Z,11.50
2018-09-27T07:19:07.448Z,11.63
2018-09-27T07:22:10.775Z,11.64
2018-09-27T07:25:14.280Z,11.80
2018-09-27T07:28:17.673Z,11.93
2018-09-27T07:31:21.102Z,12.17
2018-09-27T07:34:24.783Z,12.33
2018-09-27T07:37:28.211Z,12.54
2018-09-27T07:40:32.096Z,12.66
2018-09-27T07:43:35.598Z,12.76
2018-09-27T07:46:39.174Z,12.74
2018-09-27T07:49:42.612Z,12.81
2018-09-27T07:52:46.019Z,12.73
2018-09-27T07:55:49.407Z,12.87
2018-09-27T07:58:53.113Z,13.08
2018-09-27T08:01:56.524Z,13.30
2018-09-27T08:05:00.440Z,13.27
2018-09-27T08:08:03.981Z,13.46
2018-09-27T08:11:07.574Z,13.69
2018-09-27T08:14:10.943Z,13.85
2018-09-27T08:17:14.404Z,13.81
2018-09-27T08:20:18.008Z,13.91
2018-09-27T08:23:21.342Z,14.08
2018-09-27T08:26:24.905Z,14.45
2018-09-27T08:29:28.814Z,14.60
2018-09-27T08:32:32.439Z,14.76
2018-09-27T08:35:35.867Z,14.85
2018-09-27T08:38:39.333Z,14.94
2018-09-27T08:41:43.688Z,14.86
2018-09-27T08:44:47.155Z,14.80
2018-09-27T08:47:50.661Z,14.84
2018-09-27T08:50:54.224Z,14.92
2018-09-27T08:53:57.786Z,15.22
2018-09-27T08:57:01.223Z,15.20
2018-09-27T09:00:05.186Z,15.34
2018-09-27T09:03:09.044Z,15.61
2018-09-27T09:06:12.426Z,15.83
2018-09-27T09:09:15.921Z,16.02
2018-09-27T09:12:19.332Z,15.88
2018-09-27T09:15:22.746Z,15.81
2018-09-27T09:18:26.533Z,15.99
2018-09-27T09:21:30.061Z,16.25
2018-09-27T09:24:33.496Z,16.44
2018-09-27T09:27:37.071Z,16.70
2018-09-27T09:30:40.554Z,16.93
2018-09-27T09:33:44.001Z,16.94
2018-09-27T09:36:47.497Z,17.06
2018-09-27T09:39:51.383Z,17.21
2018-09-27T09:42:54.754Z,17.28
2018-09-27T09:45:58.218Z,17.47
2018-09-27T09:49:01.758Z,17.67
2018-09-27T09:52:05.434Z,17.67
2018-09-27T09:55:08.971Z,17.81
2018-09-27T09:58:13.533Z,18.04
2018-09-27T10:01:16.896Z,18.11
2018-09-27T10:04:20.394Z,18.16
2018-09-27T10:07:23.998Z,18.32
2018-09-27T10:10:27.422Z,18.41
2018-09-27T10:13:30.817Z,18.13
2018-09-27T10:16:34.366Z,18.30
2018-09-27T10:19:37.935Z,18.17
2018-09-27T10:22:41.298Z,18.23
2018-09-27T10:25:44.732Z,18.41
2018-09-27T10:28:48.098Z,18.50
2018-09-27T10:31:51.576Z,18.77
2018-09-27T10:34:55.003Z,18.73
2018-09-27T10:37:58.433Z,18.99
2018-09-27T10:41:01.823Z,19.01
2018-09-27T10:44:05.328Z,19.11
2018-09-27T10:47:08.704Z,19.26
2018-09-27T10:50:12.256Z,19.34
2018-09-27T10:53:15.725Z,19.55
2018-09-27T10:56:19.279Z,19.59
2018-09-27T10:59:22.749Z,19.65
2018-09-27T11:02:26.212Z,19.61
2018-09-27T11:05:29.783Z,19.52
2018-09-27T11:08:33.232Z,19.45
2018-09-27T11:11:36.968Z,19.46
2018-09-27T11:14:40.436Z,19.70
2018-09-27T11:17:44.035Z,19.75
2018-09-27T11:20:47.545Z,19.87
2018-09-27T11:23:51.040Z,20.08
2018-09-27T11:26:54.676Z,20.15
2018-09-27T11:30:03.471Z,20.48
2018-09-27T11:33:07.139Z,20.52
2018-09-27T11:36:11.223Z,20.29
2018-09-27T11:39:14.778Z,20.09
2018-09-27T11:42:18.422Z,20.14
2018-09-27T11:45:24.287Z,20.28
2018-09-27T11:48:27.895Z,20.34
2018-09-27T11:51:31.410Z,20.39
2018-09-27T11:54:34.900Z,20.59
2018-09-27T11:57:38.407Z,20.75
2018-09-27T12:00:42.069Z,20.82
2018-09-27T12:03:45.498Z,20.91
2018-09-27T12:06:49.017Z,21.01
2018-09-27T12:09:52.495Z,20.88
2018-09-27T12:12:56.081Z,20.94
2018-09-27T12:15:59.710Z,20.96
2018-09-27T12:19:03.219Z,20.90
2018-09-27T12:22:06.893Z,20.93
2018-09-27T12:25:10.476Z,21.02
2018-09-27T12:28:13.937Z,21.17
2018-09-27T12:31:17.429Z,21.38
2018-09-27T12:34:21.020Z,21.42
2018-09-27T12:37:24.537Z,21.61
2018-09-27T12:40:28.089Z,21.58
2018-09-27T12:43:31.537Z,21.43
2018-09-27T12:46:35.128Z,21.52
2018-09-27T12:49:38.541Z,21.59
2018-09-27T12:52:42.073Z,21.69
2018-09-27T12:55:45.558Z,21.80
2018-09-27T12:58:49.027Z,21.96
2018-09-27T13:01:52.575Z,22.05
2018-09-27T13:04:55.960Z,22.08
2018-09-27T13:07:59.483Z,22.24
2018-09-27T13:11:03.061Z,22.30
2018-09-27T13:14:06.602Z,22.21
2018-09-27T13:17:10.221Z,22.12
2018-09-27T13:20:13.773Z,22.10
2018-09-27T13:23:17.164Z,22.24
2018-09-27T13:26:20.580Z,22.23
2018-09-27T13:29:24.086Z,22.23
2018-09-27T13:32:27.584Z,22.45
2018-09-27T13:35:31.081Z,22.49
2018-09-27T13:38:34.653Z,22.49
2018-09-27T13:41:39.120Z,22.62
2018-09-27T13:44:42.627Z,22.66
2018-09-27T13:47:46.094Z,22.79
2018-09-27T13:50:49.662Z,22.90
2018-09-27T13:53:53.129Z,22.90
2018-09-27T13:56:56.713Z,22.95
2018-09-27T14:00:00.205Z,22.84
2018-09-27T14:03:03.798Z,22.88
2018-09-27T14:06:11.748Z,23.01
2018-09-27T14:09:15.235Z,23.13
2018-09-27T14:12:18.644Z,23.38
2018-09-27T14:15:22.147Z,23.45
2018-09-27T14:18:25.657Z,23.62
2018-09-27T14:21:29.156Z,23.80
2018-09-27T14:24:32.636Z,23.88
2018-09-27T14:27:36.074Z,24.02
2018-09-27T14:30:39.567Z,23.91
2018-09-27T14:33:43.355Z,23.93
2018-09-27T14:36:46.807Z,24.09
2018-09-27T14:39:50.245Z,24.25
2018-09-27T14:42:53.673Z,24.38
2018-09-27T14:45:57.384Z,24.37
2018-09-27T14:49:00.869Z,24.11
2018-09-27T14:52:04.596Z,24.04
2018-09-27T14:55:08.077Z,24.22
2018-09-27T14:58:11.492Z,24.30
2018-09-27T15:01:14.982Z,24.07
2018-09-27T15:04:18.357Z,23.82
2018-09-27T15:07:21.929Z,23.99
2018-09-27T15:10:25.816Z,23.98
2018-09-27T15:13:29.224Z,23.97
2018-09-27T15:16:32.771Z,23.80
2018-09-27T15:19:36.181Z,23.91
2018-09-27T15:22:39.640Z,24.09
2018-09-27T15:25:43.142Z,24.18
2018-09-27T15:28:46.583Z,24.15
2018-09-27T15:31:49.993Z,23.99
2018-09-27T15:34:53.391Z,24.09
2018-09-27T15:37:56.915Z,23.91
2018-09-27T15:41:00.385Z,23.84
2018-09-27T15:44:03.958Z,23.86
2018-09-27T15:47:07.433Z,24.11
2018-09-27T15:50:11.101Z,24.21
2018-09-27T15:53:14.619Z,24.34
2018-09-27T15:56:18.182Z,24.26
2018-09-27T15:59:21.636Z,24.16
2018-09-27T16:02:25.015Z,24.14
2018-09-27T16:05:29.103Z,24.17
2018-09-27T16:08:32.504Z,24.07
2018-09-27T16:11:35.984Z,23.99
2018-09-27T16:14:39.600Z,23.89
2018-09-27T16:17:43.100Z,23.80
2018-09-27T16:20:46.526Z,23.51
2018-09-27T16:23:49.947Z,23.40
2018-09-27T16:26:53.353Z,23.24
2018-09-27T16:29:56.746Z,23.13
2018-09-27T16:33:00.152Z,22.95
2018-09-27T16:36:03.583Z,22.85
2018-09-27T16:39:08.987Z,22.75
2018-09-27T16:42:12.548Z,22.61
2018-09-27T16:45:16.118Z,22.41
2018-09-27T16:48:19.686Z,22.30
2018-09-27T16:51:23.281Z,22.16
2018-09-27T16:54:26.867Z,22.03
2018-09-27T16:57:30.417Z,21.87
2018-09-27T17:00:33.974Z,21.70
2018-09-27T17:03:37.508Z,21.51
2018-09-27T17:06:41.017Z,21.39
2018-09-27T17:09:44.613Z,21.26
2018-09-27T17:12:49.258Z,21.13
2018-09-27T17:15:52.912Z,21.01
2018-09-27T17:18:56.506Z,20.85
2018-09-27T17:21:59.985Z,20.73
2018-09-27T17:25:03.646Z,20.60
2018-09-27T17:28:07.243Z,20.47
2018-09-27T17:31:10.901Z,20.34
2018-09-27T17:34:14.383Z,20.21
2018-09-27T17:37:17.849Z,20.08
2018-09-27T17:40:21.398Z,19.94
2018-09-27T17:43:26.117Z,19.85
2018-09-27T17:46:29.925Z,19.71
2018-09-27T17:49:33.470Z,19.59
2018-09-27T17:52:36.957Z,19.44
2018-09-27T17:55:40.512Z,19.30
2018-09-27T17:58:44.120Z,19.20
2018-09-27T18:01:47.594Z,18.98
2018-09-27T18:04:51.119Z,18.81
2018-09-27T18:07:54.785Z,18.74
2018-09-27T18:10:58.228Z,18.66
2018-09-27T18:14:01.878Z,18.52
2018-09-27T18:17:05.560Z,18.44
2018-09-27T18:20:09.178Z,18.34
2018-09-27T18:23:12.705Z,18.20
2018-09-27T18:26:16.502Z,18.04
2018-09-27T18:29:20.285Z,17.97
2018-09-27T18:32:23.887Z,17.89
2018-09-27T18:35:27.425Z,17.80
2018-09-27T18:38:30.992Z,17.71
2018-09-27T18:41:34.538Z,17.64
2018-09-27T18:44:38.037Z,17.64
2018-09-27T18:47:42.606Z,17.67
2018-09-27T18:50:46.058Z,17.61
2018-09-27T18:53:49.663Z,17.49
2018-09-27T18:56:53.275Z,17.31
2018-09-27T18:59:56.773Z,17.15
2018-09-27T19:03:00.263Z,17.11
2018-09-27T19:06:03.836Z,17.04
2018-09-27T19:09:07.664Z,16.96
2018-09-27T19:12:11.399Z,16.89
2018-09-27T19:15:14.905Z,16.84
2018-09-27T19:18:18.457Z,16.81
2018-09-27T19:21:21.914Z,16.81
2018-09-27T19:24:25.479Z,16.78
2018-09-27T19:27:29.061Z,16.75
2018-09-27T19:30:32.521Z,16.68
2018-09-27T19:33:36.134Z,16.64
2018-09-27T19:36:39.705Z,16.63
2018-09-27T19:39:43.231Z,16.63
2018-09-27T19:42:46.734Z,16.61
2018-09-27T19:45:50.459Z,16.58
2018-09-27T19:48:55.268Z,16.57
2018-09-27T19:51:58.750Z,16.53
2018-09-27T19:55:02.179Z,16.49
2018-09-27T19:58:06.123Z,16.52
2018-09-27T20:01:09.620Z,16.47
2018-09-27T20:04:13.184Z,16.43
2018-09-27T20:07:16.573Z,16.37
2018-09-27T20:10:20.102Z,16.30
2018-09-27T20:13:23.613Z,16.29
2018-09-27T20:16:27.272Z,16.25
2018-09-27T20:19:30.799Z,16.24
2018-09-27T20:22:34.340Z,16.21
2018-09-27T20:25:37.807Z,16.15
2018-09-27T20:28:41.330Z,16.10
2018-09-27T20:31:44.807Z,16.05
2018-09-27T20:34:48.261Z,16.04
2018-09-27T20:37:51.793Z,16.07
2018-09-27T20:40:55.356Z,16.02
2018-09-27T20:43:58.893Z,15.99
2018-09-27T20:47:02.360Z,15.93
2018-09-27T20:50:05.942Z,15.85
2018-09-27T20:53:09.424Z,15.77
2018-09-27T20:56:12.826Z,15.67
2018-09-27T20:59:16.468Z,15.55
2018-09-27T21:02:19.939Z,15.40
2018-09-27T21:05:23.329Z,15.38
2018-09-27T21:08:26.851Z,15.33
2018-09-27T21:11:30.582Z,15.28
2018-09-27T21:14:34.019Z,15.24
2018-09-27T21:17:37.430Z,15.16
2018-09-27T21:20:40.829Z,15.08
2018-09-27T21:23:44.351Z,14.96
2018-09-27T21:26:47.997Z,14.86
2018-09-27T21:29:51.416Z,14.79
2018-09-27T21:32:55.274Z,14.78
2018-09-27T21:35:59.006Z,14.74
2018-09-27T21:39:02.558Z,14.69
2018-09-27T21:42:06.047Z,14.62
2018-09-27T21:45:09.456Z,14.54
2018-09-27T21:48:13.972Z,14.48
2018-09-27T21:51:17.468Z,14.55
2018-09-27T21:54:20.897Z,14.58
2018-09-27T21:57:24.290Z,14.57
2018-09-27T22:00:27.723Z,14.62
2018-09-27T22:03:31.116Z,14.64
2018-09-27T22:06:34.529Z,14.65
2018-09-27T22:09:37.908Z,14.64
2018-09-27T22:12:41.272Z,14.64
2018-09-27T22:15:44.856Z,14.64
2018-09-27T22:18:48.282Z,14.59
2018-09-27T22:21:52.850Z,14.58
2018-09-27T22:24:56.213Z,14.50
2018-09-27T22:27:59.604Z,14.43
2018-09-27T22:31:03.167Z,14.37
2018-09-27T22:34:06.704Z,14.39
2018-09-27T22:37:10.093Z,14.35
2018-09-27T22:40:13.526Z,14.34
2018-09-27T22:43:16.912Z,14.31
2018-09-27T22:46:20.398Z,14.27
2018-09-27T22:49:23.827Z,14.14
2018-09-27T22:52:27.307Z,14.10
2018-09-27T22:55:30.854Z,14.07
2018-09-27T22:58:34.276Z,14.05
2018-09-27T23:01:37.694Z,14.01
2018-09-27T23:04:41.151Z,14.04
2018-09-27T23:07:44.821Z,14.00
2018-09-27T23:10:48.529Z,14.01
2018-09-27T23:13:52.061Z,13.94
2018-09-27T23:16:55.603Z,13.91
2018-09-27T23:19:59.058Z,13.89
2018-09-27T23:23:02.554Z,13.89
2018-09-27T23:26:06.173Z,13.88
2018-09-27T23:29:09.683Z,13.85
2018-09-27T23:32:13.253Z,13.78
2018-09-27T23:35:16.868Z,13.75
2018-09-27T23:38:20.405Z,13.80
2018-09-27T23:41:23.894Z,13.79
2018-09-27T23:44:27.439Z,13.76
2018-09-27T23:47:30.985Z,13.71
2018-09-27T23:50:34.514Z,13.69
2018-09-27T23:53:38.033Z,13.68
2018-09-27T23:56:41.492Z,13.65
2018-09-27T23:59:45.052Z,13.60
